Terminal Aerodrome Forecast
Issued by NWS

Home | Current Version | Previous Version | Text Only | Print | Product List | Glossary On
Versions: 1 2 3 4 5 6 7 8 9 10 11 12 13 14 15 16 17 18 19 20 21 22
000
FTUS44 KTSA 181100
TAFBVO
TAF
KBVO 181132Z 1812/1912 09008KT P6SM -SHRA OVC040
      TEMPO 1812/1815 4SM -TSRA OVC030CB
     FM181600 11007KT P6SM SCT040 BKN150
     FM181800 12007KT P6SM VCTS SCT040CB
     FM190000 00000KT P6SM SCT250
     FM190700 00000KT 3SM BR SKC=

USA.gov is the U.S. government's official web portal to all federal, state and local government web resources and services.